createdAt,value
2019-04-04T00:00:10.516Z,13.31
2019-04-04T00:01:10.483Z,13.33
2019-04-04T00:02:10.467Z,13.35
2019-04-04T00:03:10.460Z,13.35
2019-04-04T00:04:10.445Z,13.31
2019-04-04T00:05:10.435Z,13.42
2019-04-04T00:06:10.430Z,13.39
2019-04-04T00:07:10.417Z,13.38
2019-04-04T00:08:10.401Z,13.35
2019-04-04T00:09:10.394Z,13.30
2019-04-04T00:10:10.385Z,13.22
2019-04-04T00:11:10.377Z,13.27
2019-04-04T00:12:10.358Z,13.19
2019-04-04T00:13:11.178Z,13.28
2019-04-04T00:14:12.670Z,13.25
2019-04-04T00:15:10.321Z,13.31
2019-04-04T00:16:10.319Z,13.31
2019-04-04T00:17:10.298Z,13.22
2019-04-04T00:18:10.294Z,13.31
2019-04-04T00:19:10.278Z,13.19
2019-04-04T00:20:10.289Z,13.20
2019-04-04T00:21:10.257Z,13.16
2019-04-04T00:22:10.249Z,13.20
2019-04-04T00:23:10.228Z,13.20
2019-04-04T00:24:10.226Z,13.18
2019-04-04T00:25:10.599Z,13.12
2019-04-04T00:26:10.924Z,13.11
2019-04-04T00:27:12.986Z,13.05
2019-04-04T00:28:10.238Z,13.15
2019-04-04T00:29:10.166Z,13.03
2019-04-04T00:30:10.152Z,13.05
2019-04-04T00:31:10.148Z,13.01
2019-04-04T00:32:10.133Z,13.04
2019-04-04T00:33:10.122Z,12.98
2019-04-04T00:34:10.106Z,13.00
2019-04-04T00:35:10.097Z,12.97
2019-04-04T00:36:10.095Z,12.97
2019-04-04T00:37:10.077Z,12.98
2019-04-04T00:38:10.082Z,12.98
2019-04-04T00:39:10.092Z,12.87
2019-04-04T00:40:11.640Z,12.83
2019-04-04T00:41:11.012Z,12.86
2019-04-04T00:42:10.028Z,12.82
2019-04-04T00:43:10.009Z,12.91
2019-04-04T00:44:09.999Z,12.86
2019-04-04T00:45:09.993Z,12.91
2019-04-04T00:46:09.982Z,12.83
2019-04-04T00:47:09.973Z,12.83
2019-04-04T00:48:09.957Z,12.83
2019-04-04T00:49:09.941Z,12.83
2019-04-04T00:50:09.931Z,12.86
2019-04-04T00:51:09.921Z,12.87
2019-04-04T00:52:10.850Z,12.78
2019-04-04T00:53:11.756Z,12.79
2019-04-04T00:54:09.892Z,12.80
2019-04-04T00:55:09.888Z,12.82
2019-04-04T00:56:09.865Z,12.82
2019-04-04T00:57:09.863Z,12.80
2019-04-04T00:58:09.850Z,12.80
2019-04-04T00:59:09.839Z,12.80
2019-04-04T01:00:09.820Z,12.68
2019-04-04T01:01:09.809Z,12.75
2019-04-04T01:02:09.798Z,12.62
2019-04-04T01:03:09.791Z,12.72
2019-04-04T01:04:09.781Z,12.61
2019-04-04T01:05:09.782Z,12.50
2019-04-04T01:06:09.758Z,12.58
2019-04-04T01:07:09.748Z,12.57
2019-04-04T01:08:09.730Z,12.57
2019-04-04T01:09:13.216Z,12.50
2019-04-04T01:10:09.718Z,12.47
2019-04-04T01:11:09.723Z,12.54
2019-04-04T01:12:09.688Z,12.55
2019-04-04T01:13:09.678Z,12.58
2019-04-04T01:14:09.672Z,12.55
2019-04-04T01:15:09.662Z,12.47
2019-04-04T01:16:09.649Z,12.54
2019-04-04T01:17:09.639Z,12.49
2019-04-04T01:18:09.627Z,12.36
2019-04-04T01:19:10.376Z,12.32
2019-04-04T01:20:09.601Z,12.39
2019-04-04T01:21:09.592Z,12.35
2019-04-04T01:22:09.581Z,12.39
2019-04-04T01:23:09.577Z,12.35
2019-04-04T01:24:09.565Z,12.42
2019-04-04T01:25:09.567Z,12.40
2019-04-04T01:26:09.539Z,12.36
2019-04-04T01:27:09.527Z,12.39
2019-04-04T01:28:09.512Z,12.36
2019-04-04T01:29:10.945Z,12.37
2019-04-04T01:30:11.743Z,12.28
2019-04-04T01:31:09.491Z,12.31
2019-04-04T01:32:09.479Z,12.35
2019-04-04T01:33:09.457Z,12.39
2019-04-04T01:34:09.449Z,12.37
2019-04-04T01:35:09.435Z,12.25
2019-04-04T01:36:09.434Z,12.25
2019-04-04T01:37:09.415Z,12.28
2019-04-04T01:38:09.410Z,12.29
2019-04-04T01:39:09.389Z,12.27
2019-04-04T01:40:09.385Z,12.24
2019-04-04T01:41:09.380Z,12.24
2019-04-04T01:42:09.368Z,12.18
2019-04-04T01:43:09.954Z,12.13
2019-04-04T01:44:11.354Z,12.18
2019-04-04T01:45:12.876Z,12.09
2019-04-04T01:46:09.314Z,12.09
2019-04-04T01:47:09.303Z,12.20
2019-04-04T01:48:09.294Z,12.04
2019-04-04T01:49:09.296Z,12.12
2019-04-04T01:50:09.275Z,12.04
2019-04-04T01:51:09.256Z,12.15
2019-04-04T01:52:09.252Z,12.07
2019-04-04T01:53:09.239Z,12.12
2019-04-04T01:54:09.235Z,12.07
2019-04-04T01:55:09.217Z,12.02
2019-04-04T01:56:09.220Z,12.04
2019-04-04T01:57:09.200Z,12.03
2019-04-04T01:58:10.013Z,12.04
2019-04-04T01:59:10.210Z,12.00
2019-04-04T02:00:09.203Z,12.04
2019-04-04T02:01:09.150Z,12.10
2019-04-04T02:02:09.204Z,12.00
2019-04-04T02:03:09.125Z,12.00
2019-04-04T02:04:09.119Z,11.94
2019-04-04T02:05:09.140Z,11.99
2019-04-04T02:06:09.194Z,11.94
2019-04-04T02:07:09.086Z,11.94
2019-04-04T02:08:09.103Z,11.91
2019-04-04T02:09:09.063Z,11.86
2019-04-04T02:10:09.057Z,11.99
2019-04-04T02:11:09.045Z,11.84
2019-04-04T02:12:09.033Z,11.87
2019-04-04T02:13:09.849Z,11.83
2019-04-04T02:14:09.863Z,11.87
2019-04-04T02:15:08.999Z,11.81
2019-04-04T02:16:08.997Z,11.84
2019-04-04T02:17:08.977Z,11.80
2019-04-04T02:18:08.967Z,11.78
2019-04-04T02:19:08.954Z,11.78
2019-04-04T02:20:08.943Z,11.80
2019-04-04T02:21:08.934Z,11.70
2019-04-04T02:22:08.931Z,11.84
2019-04-04T02:23:08.910Z,11.86
2019-04-04T02:24:08.901Z,11.78
2019-04-04T02:25:08.910Z,11.77
2019-04-04T02:26:08.878Z,11.70
2019-04-04T02:27:08.873Z,11.75
2019-04-04T02:28:09.518Z,11.69
2019-04-04T02:29:10.749Z,11.69
2019-04-04T02:30:08.834Z,11.68
2019-04-04T02:31:08.837Z,11.68
2019-04-04T02:32:08.819Z,11.70
2019-04-04T02:33:08.804Z,11.69
2019-04-04T02:34:08.805Z,11.73
2019-04-04T02:35:10.762Z,11.69
2019-04-04T02:36:08.781Z,11.66
2019-04-04T02:37:08.760Z,11.68
2019-04-04T02:38:08.749Z,11.70
2019-04-04T02:39:08.773Z,11.62
2019-04-04T02:40:09.962Z,11.55
2019-04-04T02:41:08.716Z,11.57
2019-04-04T02:42:08.708Z,11.55
2019-04-04T02:43:08.694Z,11.59
2019-04-04T02:44:08.689Z,11.50
2019-04-04T02:45:08.681Z,11.50
2019-04-04T02:46:11.252Z,11.45
2019-04-04T02:47:08.651Z,11.40
2019-04-04T02:48:08.635Z,11.44
2019-04-04T02:49:08.642Z,11.45
2019-04-04T02:50:08.622Z,11.43
2019-04-04T02:51:08.626Z,11.47
2019-04-04T02:52:12.823Z,11.45
2019-04-04T02:53:08.584Z,11.47
2019-04-04T02:54:08.663Z,11.48
2019-04-04T02:55:08.573Z,11.43
2019-04-04T02:56:08.553Z,11.43
2019-04-04T02:57:09.588Z,11.40
2019-04-04T02:58:08.527Z,11.40
2019-04-04T02:59:08.527Z,11.37
2019-04-04T03:00:08.517Z,11.30
2019-04-04T03:01:08.501Z,11.37
2019-04-04T03:02:08.482Z,11.35
2019-04-04T03:03:09.391Z,11.30
2019-04-04T03:04:08.466Z,11.22
2019-04-04T03:05:08.452Z,11.23
2019-04-04T03:06:08.444Z,11.33
2019-04-04T03:07:08.429Z,11.32
2019-04-04T03:08:08.414Z,11.32
2019-04-04T03:09:10.123Z,11.40
2019-04-04T03:10:08.408Z,11.25
2019-04-04T03:11:08.432Z,11.33
2019-04-04T03:12:08.379Z,11.29
2019-04-04T03:13:08.359Z,11.27
2019-04-04T03:14:08.361Z,11.33
2019-04-04T03:15:09.037Z,11.33
2019-04-04T03:16:08.337Z,11.19
2019-04-04T03:17:08.324Z,11.30
2019-04-04T03:18:08.318Z,11.26
2019-04-04T03:19:11.069Z,11.27
2019-04-04T03:20:08.281Z,11.26
2019-04-04T03:21:08.306Z,11.22
2019-04-04T03:22:08.271Z,11.23
2019-04-04T03:23:08.246Z,11.22
2019-04-04T03:24:08.280Z,11.22
2019-04-04T03:25:08.227Z,11.17
2019-04-04T03:26:08.242Z,11.25
2019-04-04T03:27:08.214Z,11.11
2019-04-04T03:28:08.195Z,11.11
2019-04-04T03:29:10.390Z,11.19
2019-04-04T03:30:13.641Z,11.17
2019-04-04T03:31:09.161Z,11.11
2019-04-04T03:32:13.726Z,11.14
2019-04-04T03:33:09.148Z,11.14
2019-04-04T03:34:11.102Z,11.12
2019-04-04T03:35:08.125Z,11.10
2019-04-04T03:36:08.107Z,11.12
2019-04-04T03:37:12.136Z,11.12
2019-04-04T03:38:08.093Z,11.12
2019-04-04T03:39:08.087Z,11.07
2019-04-04T03:40:08.063Z,11.07
2019-04-04T03:41:08.053Z,11.05
2019-04-04T03:42:08.346Z,10.97
2019-04-04T03:43:08.026Z,11.04
2019-04-04T03:44:08.016Z,10.99
2019-04-04T03:45:08.010Z,10.99
2019-04-04T03:46:08.000Z,10.93
2019-04-04T03:47:10.417Z,10.92
2019-04-04T03:48:07.970Z,10.94
2019-04-04T03:49:07.969Z,10.96
2019-04-04T03:50:07.960Z,10.90
2019-04-04T03:51:07.940Z,10.93
2019-04-04T03:52:11.255Z,10.90
2019-04-04T03:53:07.929Z,10.82
2019-04-04T03:54:07.901Z,10.90
2019-04-04T03:55:07.900Z,10.82
2019-04-04T03:56:07.894Z,10.84
2019-04-04T03:57:11.065Z,10.89
2019-04-04T03:58:07.865Z,10.82
2019-04-04T03:59:07.846Z,10.89
2019-04-04T04:00:07.838Z,10.89
2019-04-04T04:01:11.791Z,10.82
2019-04-04T04:02:08.813Z,10.86
2019-04-04T04:03:07.804Z,10.82
2019-04-04T04:04:07.798Z,10.72
2019-04-04T04:05:07.791Z,10.74
2019-04-04T04:06:08.907Z,10.78
2019-04-04T04:07:07.789Z,10.79
2019-04-04T04:08:07.751Z,10.75
2019-04-04T04:09:07.739Z,10.75
2019-04-04T04:10:07.731Z,10.72
2019-04-04T04:11:07.715Z,10.71
2019-04-04T04:12:10.447Z,10.81
2019-04-04T04:13:07.695Z,10.74
2019-04-04T04:14:07.678Z,10.82
2019-04-04T04:15:07.673Z,10.79
2019-04-04T04:16:07.658Z,10.71
2019-04-04T04:17:09.210Z,10.72
2019-04-04T04:18:07.760Z,10.79
2019-04-04T04:19:07.631Z,10.69
2019-04-04T04:20:07.616Z,10.72
2019-04-04T04:21:10.916Z,10.74
2019-04-04T04:22:07.596Z,10.76
2019-04-04T04:23:07.584Z,10.72
2019-04-04T04:24:07.580Z,10.76
2019-04-04T04:25:07.551Z,10.71
2019-04-04T04:26:09.345Z,10.76
2019-04-04T04:27:07.545Z,10.75
2019-04-04T04:28:07.533Z,10.68
2019-04-04T04:29:07.510Z,10.74
2019-04-04T04:30:07.747Z,10.64
2019-04-04T04:31:07.499Z,10.59
2019-04-04T04:32:07.484Z,10.56
2019-04-04T04:33:07.478Z,10.60
2019-04-04T04:34:07.451Z,10.60
2019-04-04T04:35:08.820Z,10.56
2019-04-04T04:36:09.736Z,10.67
2019-04-04T04:37:07.428Z,10.67
2019-04-04T04:38:07.419Z,10.59
2019-04-04T04:39:07.419Z,10.54
2019-04-04T04:40:07.401Z,10.56
2019-04-04T04:41:07.380Z,10.59
2019-04-04T04:42:07.366Z,10.57
2019-04-04T04:43:07.355Z,10.57
2019-04-04T04:44:07.348Z,10.59
2019-04-04T04:45:11.007Z,10.53
2019-04-04T04:46:07.321Z,10.59
2019-04-04T04:47:07.313Z,10.53
2019-04-04T04:48:07.303Z,10.57
2019-04-04T04:49:07.289Z,10.63
2019-04-04T04:50:09.663Z,10.64
2019-04-04T04:51:07.269Z,10.54
2019-04-04T04:52:07.254Z,10.56
2019-04-04T04:53:07.250Z,10.60
2019-04-04T04:54:07.233Z,10.59
2019-04-04T04:55:07.230Z,10.59
2019-04-04T04:56:07.215Z,10.61
2019-04-04T04:57:07.197Z,10.57
2019-04-04T04:58:09.763Z,10.57
2019-04-04T04:59:07.172Z,10.59
2019-04-04T05:00:07.194Z,10.57
2019-04-04T05:01:07.148Z,10.63
2019-04-04T05:02:07.143Z,10.60
2019-04-04T05:03:07.140Z,10.57
2019-04-04T05:04:07.130Z,10.51
2019-04-04T05:05:07.114Z,10.54
2019-04-04T05:06:07.108Z,10.48
2019-04-04T05:07:07.974Z,10.51
2019-04-04T05:08:09.653Z,10.53
2019-04-04T05:09:07.064Z,10.49
2019-04-04T05:10:07.053Z,10.48
2019-04-04T05:11:07.049Z,10.53
2019-04-04T05:12:07.042Z,10.48
2019-04-04T05:13:07.028Z,10.46
2019-04-04T05:14:07.014Z,10.51
2019-04-04T05:15:07.000Z,10.51
2019-04-04T05:16:08.882Z,10.42
2019-04-04T05:17:09.811Z,10.49
2019-04-04T05:18:06.960Z,10.51
2019-04-04T05:19:06.950Z,10.57
2019-04-04T05:20:06.945Z,10.56
2019-04-04T05:21:06.952Z,10.57
2019-04-04T05:22:08.829Z,10.60
2019-04-04T05:23:06.907Z,10.60
2019-04-04T05:24:06.911Z,10.61
2019-04-04T05:25:08.646Z,10.54
2019-04-04T05:26:09.533Z,10.54
2019-04-04T05:27:06.885Z,10.54
2019-04-04T05:28:10.511Z,10.57
2019-04-04T05:29:06.850Z,10.49
2019-04-04T05:30:08.501Z,10.54
2019-04-04T05:31:06.818Z,10.54
2019-04-04T05:32:06.810Z,10.53
2019-04-04T05:33:06.804Z,10.67
2019-04-04T05:34:06.783Z,10.54
2019-04-04T05:35:06.774Z,10.59
2019-04-04T05:36:06.772Z,10.60
2019-04-04T05:37:07.367Z,10.60
2019-04-04T05:38:07.850Z,10.57
2019-04-04T05:39:06.735Z,10.57
2019-04-04T05:40:06.741Z,10.56
2019-04-04T05:41:06.712Z,10.59
2019-04-04T05:42:06.715Z,10.57
2019-04-04T05:43:06.700Z,10.60
2019-04-04T05:44:09.103Z,10.63
2019-04-04T05:45:06.654Z,10.72
2019-04-04T05:46:06.646Z,10.71
2019-04-04T05:47:06.669Z,10.72
2019-04-04T05:48:06.636Z,10.69
2019-04-04T05:49:08.315Z,10.68
2019-04-04T05:50:06.613Z,10.71
2019-04-04T05:51:06.618Z,10.74
2019-04-04T05:52:09.006Z,10.68
2019-04-04T05:53:06.600Z,10.71
2019-04-04T05:54:07.614Z,10.67
2019-04-04T05:55:09.947Z,10.71
2019-04-04T05:56:06.697Z,10.68
2019-04-04T05:57:06.537Z,10.72
2019-04-04T05:58:06.516Z,10.84
2019-04-04T05:59:06.546Z,10.81
2019-04-04T06:00:06.500Z,10.82
2019-04-04T06:01:06.518Z,10.86
2019-04-04T06:02:06.467Z,10.86
2019-04-04T06:03:06.463Z,10.86
2019-04-04T06:04:06.506Z,10.86
2019-04-04T06:05:06.459Z,10.81
2019-04-04T06:06:06.431Z,10.86
2019-04-04T06:07:06.437Z,10.79
2019-04-04T06:08:08.110Z,10.93
2019-04-04T06:09:06.425Z,10.87
2019-04-04T06:10:06.382Z,10.87
2019-04-04T06:11:06.377Z,10.93
2019-04-04T06:12:06.361Z,11.00
2019-04-04T06:13:06.353Z,11.00
2019-04-04T06:14:06.341Z,11.02
2019-04-04T06:15:06.330Z,11.00
2019-04-04T06:16:06.313Z,11.08
2019-04-04T06:17:07.178Z,11.12
2019-04-04T06:18:06.294Z,11.08
2019-04-04T06:19:06.292Z,11.05
2019-04-04T06:20:06.285Z,11.11
2019-04-04T06:21:06.263Z,11.12
2019-04-04T06:22:06.249Z,11.14
2019-04-04T06:23:06.244Z,11.17
2019-04-04T06:24:06.296Z,11.14
2019-04-04T06:25:06.210Z,11.22
2019-04-04T06:26:07.413Z,11.19
2019-04-04T06:27:07.116Z,11.22
2019-04-04T06:28:06.179Z,11.25
2019-04-04T06:29:06.170Z,11.22
2019-04-04T06:30:06.158Z,11.19
2019-04-04T06:31:06.155Z,11.26
2019-04-04T06:32:06.141Z,11.19
2019-04-04T06:33:06.141Z,11.29
2019-04-04T06:34:10.036Z,11.26
2019-04-04T06:35:06.098Z,11.23
2019-04-04T06:36:06.095Z,11.29
2019-04-04T06:37:06.093Z,11.35
2019-04-04T06:38:06.073Z,11.27
2019-04-04T06:39:06.056Z,11.40
2019-04-04T06:40:06.070Z,11.45
2019-04-04T06:41:06.048Z,11.50
2019-04-04T06:42:06.025Z,11.52
2019-04-04T06:43:10.715Z,11.52
2019-04-04T06:44:06.999Z,11.48
2019-04-04T06:45:05.994Z,11.59
2019-04-04T06:46:05.979Z,11.55
2019-04-04T06:47:05.969Z,11.57
2019-04-04T06:48:05.965Z,11.59
2019-04-04T06:49:05.956Z,11.60
2019-04-04T06:50:08.176Z,11.66
2019-04-04T06:51:05.927Z,11.77
2019-04-04T06:52:05.912Z,11.75
2019-04-04T06:53:05.900Z,11.83
2019-04-04T06:54:05.901Z,11.80
2019-04-04T06:55:05.887Z,11.81
2019-04-04T06:56:05.874Z,11.87
2019-04-04T06:57:05.866Z,11.90
2019-04-04T06:58:08.350Z,11.88
2019-04-04T06:59:05.894Z,11.86
2019-04-04T07:00:05.824Z,11.88
2019-04-04T07:01:05.812Z,11.95
2019-04-04T07:02:05.802Z,11.90
2019-04-04T07:03:05.792Z,11.99
2019-04-04T07:04:05.780Z,11.95
2019-04-04T07:05:06.306Z,12.09
2019-04-04T07:06:05.756Z,12.10
2019-04-04T07:07:05.751Z,12.20
2019-04-04T07:08:05.738Z,12.20
2019-04-04T07:09:05.737Z,12.24
2019-04-04T07:10:05.718Z,12.18
2019-04-04T07:11:11.236Z,12.21
2019-04-04T07:12:07.222Z,12.36
2019-04-04T07:13:20.450Z,12.37
2019-04-04T07:14:06.676Z,12.36
2019-04-04T07:15:05.664Z,12.37
2019-04-04T07:16:07.987Z,12.49
2019-04-04T07:17:08.411Z,12.55
2019-04-04T07:18:05.632Z,12.55
2019-04-04T07:19:07.841Z,12.54
2019-04-04T07:20:05.613Z,12.53
2019-04-04T07:21:05.602Z,12.53
2019-04-04T07:22:05.586Z,12.60
2019-04-04T07:23:05.573Z,12.70
2019-04-04T07:24:05.563Z,12.78
2019-04-04T07:25:06.694Z,12.76
2019-04-04T07:26:05.548Z,12.82
2019-04-04T07:27:05.533Z,12.86
2019-04-04T07:28:05.517Z,12.90
2019-04-04T07:29:05.509Z,13.01
2019-04-04T07:30:05.501Z,13.08
2019-04-04T07:31:05.492Z,13.03
2019-04-04T07:32:07.187Z,12.98
2019-04-04T07:33:05.463Z,13.01
2019-04-04T07:34:05.492Z,13.18
2019-04-04T07:35:05.444Z,13.23
2019-04-04T07:36:05.429Z,13.20
2019-04-04T07:37:05.419Z,13.22
2019-04-04T07:38:05.412Z,13.35
2019-04-04T07:39:05.418Z,13.30
2019-04-04T07:40:05.393Z,13.31
2019-04-04T07:41:07.880Z,13.38
2019-04-04T07:42:05.361Z,13.41
2019-04-04T07:43:08.383Z,13.41
2019-04-04T07:44:05.348Z,13.38
2019-04-04T07:45:05.341Z,13.53
2019-04-04T07:46:16.350Z,13.52
2019-04-04T07:47:06.314Z,13.54
2019-04-04T07:48:05.301Z,13.50
2019-04-04T07:49:05.290Z,13.56
2019-04-04T07:50:05.277Z,13.52
2019-04-04T07:51:05.261Z,13.53
2019-04-04T07:52:05.256Z,13.59
2019-04-04T07:53:05.441Z,13.62
2019-04-04T07:54:07.292Z,13.60
2019-04-04T07:55:05.221Z,13.70
2019-04-04T07:56:05.208Z,13.72
2019-04-04T07:57:05.198Z,13.67
2019-04-04T07:58:05.190Z,13.77
2019-04-04T07:59:05.186Z,13.81
2019-04-04T08:00:05.173Z,13.95
2019-04-04T08:01:05.151Z,14.03
2019-04-04T08:02:05.142Z,14.10
2019-04-04T08:03:05.130Z,14.08
2019-04-04T08:04:06.603Z,14.11
2019-04-04T08:05:05.111Z,14.20
2019-04-04T08:06:05.109Z,14.18
2019-04-04T08:07:05.085Z,14.28
2019-04-04T08:08:05.075Z,14.37
2019-04-04T08:09:05.065Z,14.40
2019-04-04T08:10:05.058Z,14.44
2019-04-04T08:11:05.057Z,14.51
2019-04-04T08:12:05.029Z,14.58
2019-04-04T08:13:05.021Z,14.60
2019-04-04T08:14:05.007Z,14.65
2019-04-04T08:15:05.001Z,14.77
2019-04-04T08:16:04.989Z,14.78
2019-04-04T08:17:04.985Z,14.89
2019-04-04T08:18:04.973Z,14.91
2019-04-04T08:19:04.951Z,14.96
2019-04-04T08:20:04.947Z,15.07
2019-04-04T08:21:05.831Z,15.15
2019-04-04T08:22:04.932Z,15.52
2019-04-04T08:23:04.923Z,15.52
2019-04-04T08:24:04.903Z,15.49
2019-04-04T08:25:04.899Z,15.55
2019-04-04T08:26:04.885Z,15.86
2019-04-04T08:27:04.871Z,16.43
2019-04-04T08:28:04.862Z,16.76
2019-04-04T08:29:04.845Z,17.19
2019-04-04T08:30:04.832Z,17.82
2019-04-04T08:31:04.825Z,18.73
2019-04-04T08:32:04.818Z,19.37
2019-04-04T08:33:04.809Z,19.11
2019-04-04T08:34:04.791Z,18.71
2019-04-04T08:35:04.774Z,18.41
2019-04-04T08:36:06.219Z,18.11
2019-04-04T08:37:04.760Z,17.60
2019-04-04T08:38:04.753Z,17.34
2019-04-04T08:39:04.751Z,17.42
2019-04-04T08:40:04.721Z,17.67
2019-04-04T08:41:04.709Z,18.23
2019-04-04T08:42:04.715Z,18.90
2019-04-04T08:43:04.696Z,19.21
2019-04-04T08:44:04.679Z,19.74
2019-04-04T08:45:04.667Z,20.14
2019-04-04T08:46:04.656Z,20.36
2019-04-04T08:47:04.645Z,20.78
2019-04-04T08:48:04.649Z,20.75
2019-04-04T08:49:04.627Z,20.90
2019-04-04T08:50:04.621Z,21.18
2019-04-04T08:51:04.601Z,21.37
2019-04-04T08:52:16.099Z,21.51
2019-04-04T08:53:05.593Z,21.46
2019-04-04T08:54:04.577Z,21.20
2019-04-04T08:55:04.561Z,21.25
2019-04-04T08:56:04.547Z,21.42
2019-04-04T08:57:04.536Z,21.77
2019-04-04T08:58:04.528Z,21.57
2019-04-04T08:59:04.522Z,20.81
2019-04-04T09:00:04.506Z,19.99
2019-04-04T09:01:04.500Z,19.30
2019-04-04T09:02:04.481Z,18.93
2019-04-04T09:03:04.467Z,18.47
2019-04-04T09:04:04.455Z,18.05
2019-04-04T09:05:11.675Z,17.65
2019-04-04T09:06:05.434Z,17.54
2019-04-04T09:07:04.426Z,17.42
2019-04-04T09:08:04.417Z,17.36
2019-04-04T09:09:04.410Z,17.30
2019-04-04T09:10:04.397Z,17.31
2019-04-04T09:11:04.385Z,17.26
2019-04-04T09:12:04.409Z,17.16
2019-04-04T09:13:04.365Z,17.19
2019-04-04T09:14:04.351Z,17.09
2019-04-04T09:15:04.339Z,17.14
2019-04-04T09:16:04.332Z,16.97
2019-04-04T09:17:04.334Z,16.91
2019-04-04T09:18:04.309Z,16.81
2019-04-04T09:19:04.300Z,16.91
2019-04-04T09:20:04.290Z,16.86
2019-04-04T09:21:04.276Z,16.87
2019-04-04T09:22:04.266Z,16.97
2019-04-04T09:23:04.266Z,17.05
2019-04-04T09:24:04.250Z,17.14
2019-04-04T09:25:04.234Z,17.11
2019-04-04T09:26:05.729Z,17.15
2019-04-04T09:27:04.209Z,17.15
2019-04-04T09:28:04.201Z,17.14
2019-04-04T09:29:04.191Z,17.16
2019-04-04T09:30:04.175Z,17.15
2019-04-04T09:31:04.165Z,17.05
2019-04-04T09:32:04.192Z,16.96
2019-04-04T09:33:04.144Z,16.90
2019-04-04T09:34:04.138Z,16.96
2019-04-04T09:35:04.126Z,17.06
2019-04-04T09:36:04.125Z,17.09
2019-04-04T09:37:04.099Z,17.09
2019-04-04T09:38:04.087Z,17.11
2019-04-04T09:39:04.085Z,17.20
2019-04-04T09:40:04.061Z,17.22
2019-04-04T09:41:04.428Z,17.26
2019-04-04T09:42:04.041Z,17.19
2019-04-04T09:43:04.051Z,17.22
2019-04-04T09:44:06.049Z,17.19
2019-04-04T09:45:04.014Z,17.26
2019-04-04T09:46:03.999Z,17.36
2019-04-04T09:47:05.634Z,17.41
2019-04-04T09:48:03.976Z,17.38
2019-04-04T09:49:03.981Z,17.41
2019-04-04T09:50:03.965Z,17.36
2019-04-04T09:51:03.945Z,17.34
2019-04-04T09:52:03.948Z,17.45
2019-04-04T09:53:03.946Z,17.39
2019-04-04T09:54:03.922Z,17.33
2019-04-04T09:55:03.907Z,17.45
2019-04-04T09:56:03.892Z,17.54
2019-04-04T09:57:03.880Z,17.64
2019-04-04T09:58:03.873Z,17.64
2019-04-04T09:59:03.866Z,17.63
2019-04-04T10:00:03.845Z,17.70
2019-04-04T10:01:06.464Z,17.57
2019-04-04T10:02:03.824Z,17.63
2019-04-04T10:03:03.817Z,17.56
2019-04-04T10:04:03.799Z,17.71
2019-04-04T10:05:06.032Z,17.76
2019-04-04T10:06:03.780Z,17.74
2019-04-04T10:07:03.792Z,17.70
2019-04-04T10:08:03.759Z,17.78
2019-04-04T10:09:15.048Z,17.82
2019-04-04T10:10:04.734Z,17.89
2019-04-04T10:11:03.722Z,17.89
2019-04-04T10:12:03.728Z,17.90
2019-04-04T10:13:03.700Z,17.95
2019-04-04T10:14:04.268Z,17.92
2019-04-04T10:15:03.682Z,17.89
2019-04-04T10:16:03.669Z,17.98
2019-04-04T10:17:03.660Z,17.90
2019-04-04T10:18:03.652Z,17.97
2019-04-04T10:19:03.631Z,18.00
2019-04-04T10:20:03.626Z,17.92
2019-04-04T10:21:11.725Z,17.94
2019-04-04T10:22:04.605Z,18.07
2019-04-04T10:23:03.596Z,17.97
2019-04-04T10:24:03.624Z,18.04
2019-04-04T10:25:03.569Z,18.15
2019-04-04T10:26:03.581Z,18.10
2019-04-04T10:27:03.551Z,18.07
2019-04-04T10:28:03.536Z,18.05
2019-04-04T10:29:03.528Z,18.16
2019-04-04T10:30:03.583Z,18.20
2019-04-04T10:31:03.503Z,18.19
2019-04-04T10:32:03.502Z,18.33
2019-04-04T10:33:03.476Z,18.28
2019-04-04T10:34:03.530Z,18.38
2019-04-04T10:35:03.458Z,18.41
2019-04-04T10:36:03.463Z,18.40
2019-04-04T10:37:03.442Z,18.47
2019-04-04T10:38:03.453Z,18.55
2019-04-04T10:39:03.425Z,18.47
2019-04-04T10:40:03.407Z,18.44
2019-04-04T10:41:03.386Z,18.50
2019-04-04T10:42:03.375Z,18.41
2019-04-04T10:43:03.366Z,18.41
2019-04-04T10:44:03.370Z,18.34
2019-04-04T10:45:03.359Z,18.43
2019-04-04T10:46:03.331Z,18.49
2019-04-04T10:47:03.324Z,18.58
2019-04-04T10:48:03.313Z,18.59
2019-04-04T10:49:03.301Z,18.74
2019-04-04T10:50:03.286Z,18.83
2019-04-04T10:51:03.276Z,18.77
2019-04-04T10:52:03.269Z,18.78
2019-04-04T10:53:03.275Z,18.70
2019-04-04T10:54:03.249Z,18.71
2019-04-04T10:55:03.260Z,18.78
2019-04-04T10:56:03.228Z,18.88
2019-04-04T10:57:03.210Z,18.93
2019-04-04T10:58:03.205Z,18.90
2019-04-04T10:59:03.193Z,18.89
2019-04-04T11:00:03.481Z,18.93
2019-04-04T11:01:03.190Z,18.92
2019-04-04T11:02:03.169Z,18.99
2019-04-04T11:03:03.177Z,19.07
2019-04-04T11:04:03.140Z,19.16
2019-04-04T11:05:03.133Z,19.14
2019-04-04T11:06:03.118Z,19.29
2019-04-04T11:07:03.109Z,19.27
2019-04-04T11:08:03.095Z,19.19
2019-04-04T11:09:03.092Z,19.22
2019-04-04T11:10:03.069Z,19.27
2019-04-04T11:11:03.061Z,19.22
2019-04-04T11:12:03.051Z,19.26
2019-04-04T11:13:03.176Z,19.27
2019-04-04T11:14:03.030Z,19.29
2019-04-04T11:15:03.032Z,19.31
2019-04-04T11:16:03.004Z,19.33
2019-04-04T11:17:02.999Z,19.34
2019-04-04T11:18:02.985Z,19.21
2019-04-04T11:19:02.977Z,19.26
2019-04-04T11:20:02.963Z,19.30
2019-04-04T11:21:02.957Z,19.33
2019-04-04T11:22:02.944Z,19.45
2019-04-04T11:23:02.941Z,19.56
2019-04-04T11:24:02.923Z,19.64
2019-04-04T11:25:02.913Z,19.59
2019-04-04T11:26:02.902Z,19.69
2019-04-04T11:27:02.886Z,19.67
2019-04-04T11:28:02.876Z,19.56
2019-04-04T11:29:02.867Z,19.59
2019-04-04T11:30:02.851Z,19.70
2019-04-04T11:31:02.850Z,19.64
2019-04-04T11:32:02.831Z,19.64
2019-04-04T11:33:02.821Z,19.66
2019-04-04T11:34:02.817Z,19.71
2019-04-04T11:35:02.825Z,19.74
2019-04-04T11:36:02.790Z,19.88
2019-04-04T11:37:02.799Z,19.88
2019-04-04T11:38:02.771Z,19.84
2019-04-04T11:39:02.762Z,19.82
2019-04-04T11:40:02.745Z,19.71
2019-04-04T11:41:02.758Z,19.81
2019-04-04T11:42:02.725Z,19.84
2019-04-04T11:43:02.715Z,19.92
2019-04-04T11:44:11.356Z,19.89
2019-04-04T11:45:44.367Z,19.81
2019-04-04T11:46:44.343Z,19.71
2019-04-04T11:47:44.327Z,19.92
2019-04-04T11:48:44.314Z,19.95
2019-04-04T11:49:44.298Z,19.91
2019-04-04T11:50:44.305Z,19.92
2019-04-04T11:51:44.282Z,19.99
2019-04-04T11:52:44.274Z,20.00
2019-04-04T11:53:44.258Z,20.14
2019-04-04T11:54:44.254Z,20.13
2019-04-04T11:55:44.242Z,20.21
2019-04-04T11:56:44.239Z,20.22
2019-04-04T11:57:44.230Z,20.21
2019-04-04T11:58:44.206Z,20.24
2019-04-04T11:59:44.206Z,20.31
2019-04-04T12:00:44.179Z,20.32
2019-04-04T12:01:44.177Z,20.36
2019-04-04T12:02:44.165Z,20.39
2019-04-04T12:03:44.153Z,20.43
2019-04-04T12:04:44.137Z,20.47
2019-04-04T12:05:44.127Z,20.41
2019-04-04T12:06:44.123Z,20.29
2019-04-04T12:07:44.116Z,20.26
2019-04-04T12:08:44.111Z,20.19
2019-04-04T12:09:44.090Z,20.07
2019-04-04T12:10:44.088Z,20.13
2019-04-04T12:11:44.069Z,20.11
2019-04-04T12:12:44.061Z,20.21
2019-04-04T12:13:44.043Z,20.22
2019-04-04T12:14:44.050Z,20.22
2019-04-04T12:15:44.023Z,20.21
2019-04-04T12:16:44.003Z,20.22
2019-04-04T12:17:43.994Z,20.16
2019-04-04T12:18:43.982Z,20.07
2019-04-04T12:19:43.973Z,19.91
2019-04-04T12:20:44.004Z,19.82
2019-04-04T12:21:43.996Z,19.76
2019-04-04T12:22:43.939Z,19.73
2019-04-04T12:23:43.928Z,19.81
2019-04-04T12:24:43.915Z,19.77
2019-04-04T12:25:43.905Z,19.69
2019-04-04T12:26:43.902Z,19.71
2019-04-04T12:27:43.886Z,19.84
2019-04-04T12:28:43.883Z,19.89
2019-04-04T12:29:43.863Z,19.92
2019-04-04T12:30:43.856Z,19.94
2019-04-04T12:31:43.850Z,20.02
2019-04-04T12:32:43.839Z,19.92
2019-04-04T12:33:43.821Z,20.00
2019-04-04T12:34:43.801Z,20.06
2019-04-04T12:35:43.793Z,20.22
2019-04-04T12:36:43.786Z,20.24
2019-04-04T12:37:43.771Z,20.21
2019-04-04T12:38:43.766Z,20.28
2019-04-04T12:39:44.534Z,20.29
2019-04-04T12:40:43.741Z,20.39
2019-04-04T12:41:43.722Z,20.56
2019-04-04T12:42:43.717Z,20.59
2019-04-04T12:43:43.710Z,20.58
2019-04-04T12:44:43.713Z,20.55
2019-04-04T12:45:43.678Z,20.56
2019-04-04T12:46:43.667Z,20.63
2019-04-04T12:47:43.657Z,20.66
2019-04-04T12:48:43.655Z,20.69
2019-04-04T12:49:43.639Z,20.75
2019-04-04T12:50:43.644Z,20.92
2019-04-04T12:51:43.613Z,20.80
2019-04-04T12:52:43.601Z,20.80